sensor_id;sensor_type;location;lat;lon;timestamp;temperature;humidity
51011;DHT22;37038;50.182;8.624;2022-11-02T00:00:34;9.30;99.90
51011;DHT22;37038;50.182;8.624;2022-11-02T00:03:45;9.40;99.90
51011;DHT22;37038;50.182;8.624;2022-11-02T00:06:45;9.40;99.90
51011;DHT22;37038;50.182;8.624;2022-11-02T00:09:41;9.30;99.90
51011;DHT22;37038;50.182;8.624;2022-11-02T00:12:56;9.30;99.90
51011;DHT22;37038;50.182;8.624;2022-11-02T00:15:49;9.40;99.90
51011;DHT22;37038;50.182;8.624;2022-11-02T00:18:38;9.40;99.90
51011;DHT22;37038;50.182;8.624;2022-11-02T00:21:27;9.40;99.90
51011;DHT22;37038;50.182;8.624;2022-11-02T00:24:19;9.40;99.90
51011;DHT22;37038;50.182;8.624;2022-11-02T00:27:09;9.40;99.90
51011;DHT22;37038;50.182;8.624;2022-11-02T00:30:06;9.40;99.90
51011;DHT22;37038;50.182;8.624;2022-11-02T00:32:58;9.40;99.90
51011;DHT22;37038;50.182;8.624;2022-11-02T00:35:57;9.30;99.90
51011;DHT22;37038;50.182;8.624;2022-11-02T00:39:53;9.30;99.90
51011;DHT22;37038;50.182;8.624;2022-11-02T00:42:50;9.20;99.90
51011;DHT22;37038;50.182;8.624;2022-11-02T00:45:48;9.20;99.90
51011;DHT22;37038;50.182;8.624;2022-11-02T00:49:11;9.10;99.90
51011;DHT22;37038;50.182;8.624;2022-11-02T00:52:01;9.10;99.90
51011;DHT22;37038;50.182;8.624;2022-11-02T00:55:00;9.20;99.90
51011;DHT22;37038;50.182;8.624;2022-11-02T00:58:04;9.20;99.90
51011;DHT22;37038;50.182;8.624;2022-11-02T01:00:57;9.20;99.90
51011;DHT22;37038;50.182;8.624;2022-11-02T01:03:48;9.20;99.90
51011;DHT22;37038;50.182;8.624;2022-11-02T01:06:40;9.10;99.90
51011;DHT22;37038;50.182;8.624;2022-11-02T01:09:32;9.20;99.90
51011;DHT22;37038;50.182;8.624;2022-11-02T01:12:31;9.20;99.90
51011;DHT22;37038;50.182;8.624;2022-11-02T01:15:41;9.10;99.90
51011;DHT22;37038;50.182;8.624;2022-11-02T01:18:33;9.10;99.90
51011;DHT22;37038;50.182;8.624;2022-11-02T01:21:43;9.10;99.90
51011;DHT22;37038;50.182;8.624;2022-11-02T01:24:54;9.10;99.90
51011;DHT22;37038;50.182;8.624;2022-11-02T01:28:32;9.00;99.90
51011;DHT22;37038;50.182;8.624;2022-11-02T01:31:41;9.00;99.90
51011;DHT22;37038;50.182;8.624;2022-11-02T01:34:38;9.00;99.90
51011;DHT22;37038;50.182;8.624;2022-11-02T01:37:29;9.00;99.90
51011;DHT22;37038;50.182;8.624;2022-11-02T01:40:17;9.00;99.90
51011;DHT22;37038;50.182;8.624;2022-11-02T01:46:16;9.00;99.90
51011;DHT22;37038;50.182;8.624;2022-11-02T01:49:19;9.00;99.90
51011;DHT22;37038;50.182;8.624;2022-11-02T01:52:17;9.00;99.90
51011;DHT22;37038;50.182;8.624;2022-11-02T01:55:22;9.00;99.90
51011;DHT22;37038;50.182;8.624;2022-11-02T01:58:20;9.00;99.90
51011;DHT22;37038;50.182;8.624;2022-11-02T02:01:19;8.90;99.90
51011;DHT22;37038;50.182;8.624;2022-11-02T02:04:20;9.00;99.90
51011;DHT22;37038;50.182;8.624;2022-11-02T02:07:11;9.00;99.90
51011;DHT22;37038;50.182;8.624;2022-11-02T02:10:03;8.90;99.90
51011;DHT22;37038;50.182;8.624;2022-11-02T02:12:53;9.00;99.90
51011;DHT22;37038;50.182;8.624;2022-11-02T02:50:19;8.70;99.90
51011;DHT22;37038;50.182;8.624;2022-11-02T02:54:25;8.80;99.90
51011;DHT22;37038;50.182;8.624;2022-11-02T02:58:50;8.90;99.90
51011;DHT22;37038;50.182;8.624;2022-11-02T03:18:05;8.90;99.90
51011;DHT22;37038;50.182;8.624;2022-11-02T03:26:25;9.00;99.90
51011;DHT22;37038;50.182;8.624;2022-11-02T03:30:25;9.10;99.90
51011;DHT22;37038;50.182;8.624;2022-11-02T03:34:52;9.30;99.90
51011;DHT22;37038;50.182;8.624;2022-11-02T03:38:06;9.30;99.90
51011;DHT22;37038;50.182;8.624;2022-11-02T03:41:18;9.40;99.90
51011;DHT22;37038;50.182;8.624;2022-11-02T03:45:03;9.30;99.90
51011;DHT22;37038;50.182;8.624;2022-11-02T03:48:55;9.30;99.90
51011;DHT22;37038;50.182;8.624;2022-11-02T04:04:05;9.20;99.90
51011;DHT22;37038;50.182;8.624;2022-11-02T04:07:13;9.30;99.90
51011;DHT22;37038;50.182;8.624;2022-11-02T04:11:07;9.40;99.90
51011;DHT22;37038;50.182;8.624;2022-11-02T04:14:51;9.30;99.90
51011;DHT22;37038;50.182;8.624;2022-11-02T04:17:46;9.40;99.90
51011;DHT22;37038;50.182;8.624;2022-11-02T04:21:20;9.30;99.90
51011;DHT22;37038;50.182;8.624;2022-11-02T04:24:26;9.30;99.90
51011;DHT22;37038;50.182;8.624;2022-11-02T04:31:51;9.30;99.90
51011;DHT22;37038;50.182;8.624;2022-11-02T04:35:41;9.30;99.90
51011;DHT22;37038;50.182;8.624;2022-11-02T04:38:42;9.30;99.90
51011;DHT22;37038;50.182;8.624;2022-11-02T04:41:35;9.30;99.90
51011;DHT22;37038;50.182;8.624;2022-11-02T04:44:45;9.20;99.90
51011;DHT22;37038;50.182;8.624;2022-11-02T04:47:50;9.20;99.90
51011;DHT22;37038;50.182;8.624;2022-11-02T04:51:02;9.10;99.90
51011;DHT22;37038;50.182;8.624;2022-11-02T04:54:30;9.00;99.90
51011;DHT22;37038;50.182;8.624;2022-11-02T04:58:13;9.00;99.90
51011;DHT22;37038;50.182;8.624;2022-11-02T05:01:45;8.90;99.90
51011;DHT22;37038;50.182;8.624;2022-11-02T05:05:21;8.90;99.90
51011;DHT22;37038;50.182;8.624;2022-11-02T05:08:35;8.80;99.90
51011;DHT22;37038;50.182;8.624;2022-11-02T05:15:44;8.70;99.90
51011;DHT22;37038;50.182;8.624;2022-11-02T05:18:56;8.70;99.90
51011;DHT22;37038;50.182;8.624;2022-11-02T05:21:57;8.70;99.90
51011;DHT22;37038;50.182;8.624;2022-11-02T05:24:49;8.60;99.90
51011;DHT22;37038;50.182;8.624;2022-11-02T05:30:53;8.50;99.90
51011;DHT22;37038;50.182;8.624;2022-11-02T05:33:50;8.50;99.90
51011;DHT22;37038;50.182;8.624;2022-11-02T05:37:22;8.50;99.90
51011;DHT22;37038;50.182;8.624;2022-11-02T05:44:29;8.50;99.90
51011;DHT22;37038;50.182;8.624;2022-11-02T05:47:56;8.40;99.90
51011;DHT22;37038;50.182;8.624;2022-11-02T05:52:20;8.30;99.90
51011;DHT22;37038;50.182;8.624;2022-11-02T05:56:16;8.30;99.90
51011;DHT22;37038;50.182;8.624;2022-11-02T06:00:17;8.30;99.90
51011;DHT22;37038;50.182;8.624;2022-11-02T06:03:40;8.30;99.90
51011;DHT22;37038;50.182;8.624;2022-11-02T06:06:45;8.30;99.90
51011;DHT22;37038;50.182;8.624;2022-11-02T06:09:35;8.20;99.90
51011;DHT22;37038;50.182;8.624;2022-11-02T06:12:41;8.20;99.90
51011;DHT22;37038;50.182;8.624;2022-11-02T06:15:40;8.30;99.90
51011;DHT22;37038;50.182;8.624;2022-11-02T06:18:43;8.30;99.90
51011;DHT22;37038;50.182;8.624;2022-11-02T06:21:51;8.20;99.90
51011;DHT22;37038;50.182;8.624;2022-11-02T06:25:07;8.20;99.90
51011;DHT22;37038;50.182;8.624;2022-11-02T06:32:09;8.20;99.90
51011;DHT22;37038;50.182;8.624;2022-11-02T06:35:01;8.20;99.90
51011;DHT22;37038;50.182;8.624;2022-11-02T06:38:41;8.20;99.90
51011;DHT22;37038;50.182;8.624;2022-11-02T06:45:56;8.10;99.90
51011;DHT22;37038;50.182;8.624;2022-11-02T06:53:13;8.30;99.90
51011;DHT22;37038;50.182;8.624;2022-11-02T06:56:47;8.30;99.90
51011;DHT22;37038;50.182;8.624;2022-11-02T07:00:00;8.60;99.90
51011;DHT22;37038;50.182;8.624;2022-11-02T07:03:10;8.90;99.90
51011;DHT22;37038;50.182;8.624;2022-11-02T07:10:28;9.60;99.90
51011;DHT22;37038;50.182;8.624;2022-11-02T07:13:36;9.80;99.90
51011;DHT22;37038;50.182;8.624;2022-11-02T07:17:03;9.80;99.90
51011;DHT22;37038;50.182;8.624;2022-11-02T07:24:21;9.50;99.90
51011;DHT22;37038;50.182;8.624;2022-11-02T07:27:47;10.30;99.90
51011;DHT22;37038;50.182;8.624;2022-11-02T07:30:59;12.70;99.90
51011;DHT22;37038;50.182;8.624;2022-11-02T07:34:00;13.90;99.90
51011;DHT22;37038;50.182;8.624;2022-11-02T07:45:48;16.30;99.90
51011;DHT22;37038;50.182;8.624;2022-11-02T07:52:03;17.00;99.90
51011;DHT22;37038;50.182;8.624;2022-11-02T07:54:58;16.70;99.90
51011;DHT22;37038;50.182;8.624;2022-11-02T07:58:01;17.70;99.90
51011;DHT22;37038;50.182;8.624;2022-11-02T08:01:11;17.90;99.90
51011;DHT22;37038;50.182;8.624;2022-11-02T08:04:08;17.60;99.90
51011;DHT22;37038;50.182;8.624;2022-11-02T08:06:57;18.10;99.90
51011;DHT22;37038;50.182;8.624;2022-11-02T08:09:52;17.90;99.90
51011;DHT22;37038;50.182;8.624;2022-11-02T08:13:09;18.40;99.90
51011;DHT22;37038;50.182;8.624;2022-11-02T08:16:09;18.40;99.90
51011;DHT22;37038;50.182;8.624;2022-11-02T08:19:03;18.80;99.90
51011;DHT22;37038;50.182;8.624;2022-11-02T08:22:02;19.50;99.90
51011;DHT22;37038;50.182;8.624;2022-11-02T08:25:52;18.70;99.90
51011;DHT22;37038;50.182;8.624;2022-11-02T08:29:06;18.00;99.90
51011;DHT22;37038;50.182;8.624;2022-11-02T08:33:12;17.80;99.90
51011;DHT22;37038;50.182;8.624;2022-11-02T08:40:28;14.50;99.90
51011;DHT22;37038;50.182;8.624;2022-11-02T08:44:28;14.00;99.90
51011;DHT22;37038;50.182;8.624;2022-11-02T08:47:55;15.20;99.90
51011;DHT22;37038;50.182;8.624;2022-11-02T08:50:58;14.70;99.90
51011;DHT22;37038;50.182;8.624;2022-11-02T08:54:24;15.10;99.90
51011;DHT22;37038;50.182;8.624;2022-11-02T08:57:15;14.50;99.90
51011;DHT22;37038;50.182;8.624;2022-11-02T09:00:08;14.10;99.90
51011;DHT22;37038;50.182;8.624;2022-11-02T09:07:10;15.00;99.90
51011;DHT22;37038;50.182;8.624;2022-11-02T09:14:48;15.50;99.90
51011;DHT22;37038;50.182;8.624;2022-11-02T09:17:56;15.30;99.90
51011;DHT22;37038;50.182;8.624;2022-11-02T09:20:52;16.40;99.90
51011;DHT22;37038;50.182;8.624;2022-11-02T09:24:15;16.70;99.90
51011;DHT22;37038;50.182;8.624;2022-11-02T09:27:09;16.60;99.90
51011;DHT22;37038;50.182;8.624;2022-11-02T09:30:02;15.90;99.90
51011;DHT22;37038;50.182;8.624;2022-11-02T09:33:12;16.20;99.90
51011;DHT22;37038;50.182;8.624;2022-11-02T09:36:15;15.80;99.90
51011;DHT22;37038;50.182;8.624;2022-11-02T09:39:29;16.00;99.90
51011;DHT22;37038;50.182;8.624;2022-11-02T09:46:29;16.40;99.90
51011;DHT22;37038;50.182;8.624;2022-11-02T09:53:12;17.10;99.90
51011;DHT22;37038;50.182;8.624;2022-11-02T09:56:08;16.60;99.90
51011;DHT22;37038;50.182;8.624;2022-11-02T09:59:16;16.60;99.90
51011;DHT22;37038;50.182;8.624;2022-11-02T10:06:30;17.20;99.90
51011;DHT22;37038;50.182;8.624;2022-11-02T10:17:54;16.00;99.90
51011;DHT22;37038;50.182;8.624;2022-11-02T10:21:09;15.60;99.90
51011;DHT22;37038;50.182;8.624;2022-11-02T10:24:38;15.30;99.90
51011;DHT22;37038;50.182;8.624;2022-11-02T10:28:22;15.10;99.90
51011;DHT22;37038;50.182;8.624;2022-11-02T10:31:02;17.20;99.90
51011;DHT22;37038;50.182;8.624;2022-11-02T10:34:29;18.10;99.90
51011;DHT22;37038;50.182;8.624;2022-11-02T10:45:15;17.70;99.90
51011;DHT22;37038;50.182;8.624;2022-11-02T10:52:16;16.30;99.90
51011;DHT22;37038;50.182;8.624;2022-11-02T11:07:33;18.30;99.90
51011;DHT22;37038;50.182;8.624;2022-11-02T11:10:45;15.90;99.90
51011;DHT22;37038;50.182;8.624;2022-11-02T11:14:25;16.70;99.90
51011;DHT22;37038;50.182;8.624;2022-11-02T11:17:43;16.90;99.90
51011;DHT22;37038;50.182;8.624;2022-11-02T11:21:02;17.20;99.90
51011;DHT22;37038;50.182;8.624;2022-11-02T11:24:21;16.90;99.90
51011;DHT22;37038;50.182;8.624;2022-11-02T11:27:33;16.90;99.90
51011;DHT22;37038;50.182;8.624;2022-11-02T11:30:47;17.10;99.90
51011;DHT22;37038;50.182;8.624;2022-11-02T11:34:01;16.60;99.90
51011;DHT22;37038;50.182;8.624;2022-11-02T11:36:51;16.20;99.90
51011;DHT22;37038;50.182;8.624;2022-11-02T11:39:42;15.60;99.90
51011;DHT22;37038;50.182;8.624;2022-11-02T11:42:42;15.10;99.90
51011;DHT22;37038;50.182;8.624;2022-11-02T11:45:33;14.70;99.90
51011;DHT22;37038;50.182;8.624;2022-11-02T11:48:44;14.40;99.90
51011;DHT22;37038;50.182;8.624;2022-11-02T11:51:41;14.30;99.90
51011;DHT22;37038;50.182;8.624;2022-11-02T11:55:00;14.40;99.90
51011;DHT22;37038;50.182;8.624;2022-11-02T11:58:13;15.60;99.90
51011;DHT22;37038;50.182;8.624;2022-11-02T12:01:24;15.60;99.90
51011;DHT22;37038;50.182;8.624;2022-11-02T12:04:36;14.90;99.90
51011;DHT22;37038;50.182;8.624;2022-11-02T12:12:00;15.10;99.90
51011;DHT22;37038;50.182;8.624;2022-11-02T12:15:29;14.90;99.90
51011;DHT22;37038;50.182;8.624;2022-11-02T12:26:36;15.50;99.90
51011;DHT22;37038;50.182;8.624;2022-11-02T12:30:17;15.90;99.90
51011;DHT22;37038;50.182;8.624;2022-11-02T12:41:54;16.00;99.90
51011;DHT22;37038;50.182;8.624;2022-11-02T13:22:08;17.10;99.90
51011;DHT22;37038;50.182;8.624;2022-11-02T13:25:15;15.90;99.90
51011;DHT22;37038;50.182;8.624;2022-11-02T13:46:12;17.80;91.00
51011;DHT22;37038;50.182;8.624;2022-11-02T13:50:27;17.80;90.20
51011;DHT22;37038;50.182;8.624;2022-11-02T13:54:23;18.60;90.40
51011;DHT22;37038;50.182;8.624;2022-11-02T13:58:12;17.80;92.20
51011;DHT22;37038;50.182;8.624;2022-11-02T14:14:14;17.00;92.60
51011;DHT22;37038;50.182;8.624;2022-11-02T14:29:57;16.60;94.50
51011;DHT22;37038;50.182;8.624;2022-11-02T15:12:47;14.90;99.90
51011;DHT22;37038;50.182;8.624;2022-11-02T15:18:43;14.80;99.90
51011;DHT22;37038;50.182;8.624;2022-11-02T15:24:19;14.50;99.90
51011;DHT22;37038;50.182;8.624;2022-11-02T15:42:43;14.10;99.90
51011;DHT22;37038;50.182;8.624;2022-11-02T16:01:35;13.50;99.90
51011;DHT22;37038;50.182;8.624;2022-11-02T16:04:30;13.30;99.90
51011;DHT22;37038;50.182;8.624;2022-11-02T16:07:30;13.30;99.90
51011;DHT22;37038;50.182;8.624;2022-11-02T16:11:10;13.20;99.90
51011;DHT22;37038;50.182;8.624;2022-11-02T16:15:13;13.20;99.90
51011;DHT22;37038;50.182;8.624;2022-11-02T16:19:00;13.00;99.90
51011;DHT22;37038;50.182;8.624;2022-11-02T16:26:19;12.90;99.90
51011;DHT22;37038;50.182;8.624;2022-11-02T16:29:30;12.90;99.90
51011;DHT22;37038;50.182;8.624;2022-11-02T16:32:27;12.90;99.90
51011;DHT22;37038;50.182;8.624;2022-11-02T16:35:27;12.90;99.90
51011;DHT22;37038;50.182;8.624;2022-11-02T16:38:23;12.90;99.90
51011;DHT22;37038;50.182;8.624;2022-11-02T16:41:15;12.80;99.90
51011;DHT22;37038;50.182;8.624;2022-11-02T16:44:10;12.80;99.90
51011;DHT22;37038;50.182;8.624;2022-11-02T16:47:28;12.70;99.90
51011;DHT22;37038;50.182;8.624;2022-11-02T16:50:25;12.70;99.90
51011;DHT22;37038;50.182;8.624;2022-11-02T16:53:35;12.60;99.90
51011;DHT22;37038;50.182;8.624;2022-11-02T16:56:33;12.40;99.90
51011;DHT22;37038;50.182;8.624;2022-11-02T16:59:26;12.40;99.90
51011;DHT22;37038;50.182;8.624;2022-11-02T17:02:37;12.30;99.90
51011;DHT22;37038;50.182;8.624;2022-11-02T17:05:29;12.20;99.90
51011;DHT22;37038;50.182;8.624;2022-11-02T17:08:28;12.10;99.90
51011;DHT22;37038;50.182;8.624;2022-11-02T17:11:22;12.10;99.90
51011;DHT22;37038;50.182;8.624;2022-11-02T17:14:19;12.10;99.90
51011;DHT22;37038;50.182;8.624;2022-11-02T17:17:39;12.00;99.90
51011;DHT22;37038;50.182;8.624;2022-11-02T17:20:27;12.10;99.90
51011;DHT22;37038;50.182;8.624;2022-11-02T17:23:34;11.90;99.90
51011;DHT22;37038;50.182;8.624;2022-11-02T17:32:12;11.40;99.90
51011;DHT22;37038;50.182;8.624;2022-11-02T17:35:12;11.30;99.90
51011;DHT22;37038;50.182;8.624;2022-11-02T17:38:02;11.20;99.90
51011;DHT22;37038;50.182;8.624;2022-11-02T17:40:52;11.00;99.90
51011;DHT22;37038;50.182;8.624;2022-11-02T17:43:42;10.80;99.90
51011;DHT22;37038;50.182;8.624;2022-11-02T17:46:34;10.70;99.90
51011;DHT22;37038;50.182;8.624;2022-11-02T17:49:39;10.40;99.90
51011;DHT22;37038;50.182;8.624;2022-11-02T17:52:31;10.30;99.90
51011;DHT22;37038;50.182;8.624;2022-11-02T17:55:32;10.30;99.90
51011;DHT22;37038;50.182;8.624;2022-11-02T17:58:50;10.50;99.90
51011;DHT22;37038;50.182;8.624;2022-11-02T18:02:18;10.60;99.90
51011;DHT22;37038;50.182;8.624;2022-11-02T18:09:26;10.50;99.90
51011;DHT22;37038;50.182;8.624;2022-11-02T18:12:26;10.50;99.90
51011;DHT22;37038;50.182;8.624;2022-11-02T18:15:26;10.60;99.90
51011;DHT22;37038;50.182;8.624;2022-11-02T18:18:21;10.60;99.90
51011;DHT22;37038;50.182;8.624;2022-11-02T18:21:30;10.50;99.90
51011;DHT22;37038;50.182;8.624;2022-11-02T18:25:19;10.30;99.90
51011;DHT22;37038;50.182;8.624;2022-11-02T18:28:24;10.10;99.90
51011;DHT22;37038;50.182;8.624;2022-11-02T18:31:23;10.10;99.90
51011;DHT22;37038;50.182;8.624;2022-11-02T18:34:25;9.90;99.90
51011;DHT22;37038;50.182;8.624;2022-11-02T18:37:14;9.80;99.90
51011;DHT22;37038;50.182;8.624;2022-11-02T18:40:06;9.70;99.90
51011;DHT22;37038;50.182;8.624;2022-11-02T18:43:08;9.70;99.90
51011;DHT22;37038;50.182;8.624;2022-11-02T18:46:08;9.60;99.90
51011;DHT22;37038;50.182;8.624;2022-11-02T18:49:36;9.50;99.90
51011;DHT22;37038;50.182;8.624;2022-11-02T18:53:09;9.40;99.90
51011;DHT22;37038;50.182;8.624;2022-11-02T18:56:12;9.30;99.90
51011;DHT22;37038;50.182;8.624;2022-11-02T18:59:15;9.30;99.90
51011;DHT22;37038;50.182;8.624;2022-11-02T19:02:12;9.20;99.90
51011;DHT22;37038;50.182;8.624;2022-11-02T19:05:11;9.10;99.90
51011;DHT22;37038;50.182;8.624;2022-11-02T19:08:21;9.00;99.90
51011;DHT22;37038;50.182;8.624;2022-11-02T19:11:37;8.90;99.90
51011;DHT22;37038;50.182;8.624;2022-11-02T19:15:08;8.80;99.90
51011;DHT22;37038;50.182;8.624;2022-11-02T19:18:44;9.10;99.90
51011;DHT22;37038;50.182;8.624;2022-11-02T19:21:58;9.30;99.90
51011;DHT22;37038;50.182;8.624;2022-11-02T19:25:31;9.10;99.90
51011;DHT22;37038;50.182;8.624;2022-11-02T19:28:59;9.00;99.90
51011;DHT22;37038;50.182;8.624;2022-11-02T19:31:53;9.00;99.90
51011;DHT22;37038;50.182;8.624;2022-11-02T19:34:43;8.90;99.90
51011;DHT22;37038;50.182;8.624;2022-11-02T19:37:32;8.80;99.90
51011;DHT22;37038;50.182;8.624;2022-11-02T19:40:23;8.70;99.90
51011;DHT22;37038;50.182;8.624;2022-11-02T19:43:21;8.70;99.90
51011;DHT22;37038;50.182;8.624;2022-11-02T19:46:18;8.70;99.90
51011;DHT22;37038;50.182;8.624;2022-11-02T19:49:20;8.80;99.90
51011;DHT22;37038;50.182;8.624;2022-11-02T19:52:19;8.50;99.90
51011;DHT22;37038;50.182;8.624;2022-11-02T19:55:13;8.70;99.90
51011;DHT22;37038;50.182;8.624;2022-11-02T19:58:17;8.80;99.90
51011;DHT22;37038;50.182;8.624;2022-11-02T20:01:30;8.70;99.90
51011;DHT22;37038;50.182;8.624;2022-11-02T20:04:32;8.80;99.90
51011;DHT22;37038;50.182;8.624;2022-11-02T20:07:28;8.70;99.90
51011;DHT22;37038;50.182;8.624;2022-11-02T20:10:51;8.40;99.90
51011;DHT22;37038;50.182;8.624;2022-11-02T20:13:46;8.50;99.90
51011;DHT22;37038;50.182;8.624;2022-11-02T20:16:38;8.50;99.90
51011;DHT22;37038;50.182;8.624;2022-11-02T20:19:31;8.50;99.90
51011;DHT22;37038;50.182;8.624;2022-11-02T20:22:36;8.50;99.90
51011;DHT22;37038;50.182;8.624;2022-11-02T20:25:28;8.40;99.90
51011;DHT22;37038;50.182;8.624;2022-11-02T20:28:19;8.10;99.90
51011;DHT22;37038;50.182;8.624;2022-11-02T20:31:17;8.20;99.90
51011;DHT22;37038;50.182;8.624;2022-11-02T20:34:10;8.20;99.90
51011;DHT22;37038;50.182;8.624;2022-11-02T20:36:59;8.10;99.90
51011;DHT22;37038;50.182;8.624;2022-11-02T20:39:48;8.30;99.90
51011;DHT22;37038;50.182;8.624;2022-11-02T20:42:39;8.30;99.90
51011;DHT22;37038;50.182;8.624;2022-11-02T20:45:28;8.40;99.90
51011;DHT22;37038;50.182;8.624;2022-11-02T20:48:20;8.40;99.90
51011;DHT22;37038;50.182;8.624;2022-11-02T20:51:21;8.10;99.90
51011;DHT22;37038;50.182;8.624;2022-11-02T20:54:17;8.40;99.90
51011;DHT22;37038;50.182;8.624;2022-11-02T20:57:12;8.30;99.90
51011;DHT22;37038;50.182;8.624;2022-11-02T21:00:03;8.20;99.90
51011;DHT22;37038;50.182;8.624;2022-11-02T21:03:15;8.20;99.90
51011;DHT22;37038;50.182;8.624;2022-11-02T21:06:04;8.20;99.90
51011;DHT22;37038;50.182;8.624;2022-11-02T21:08:53;8.20;99.90
51011;DHT22;37038;50.182;8.624;2022-11-02T21:11:42;7.90;99.90
51011;DHT22;37038;50.182;8.624;2022-11-02T21:14:52;8.00;99.90
51011;DHT22;37038;50.182;8.624;2022-11-02T21:17:46;8.00;99.90
51011;DHT22;37038;50.182;8.624;2022-11-02T21:20:35;8.00;99.90
51011;DHT22;37038;50.182;8.624;2022-11-02T21:23:40;8.00;99.90
51011;DHT22;37038;50.182;8.624;2022-11-02T21:26:33;8.00;99.90
51011;DHT22;37038;50.182;8.624;2022-11-02T21:29:23;7.80;99.90
51011;DHT22;37038;50.182;8.624;2022-11-02T21:32:18;7.90;99.90
51011;DHT22;37038;50.182;8.624;2022-11-02T21:35:07;7.80;99.90
51011;DHT22;37038;50.182;8.624;2022-11-02T21:38:01;7.90;99.90
51011;DHT22;37038;50.182;8.624;2022-11-02T21:41:04;7.90;99.90
51011;DHT22;37038;50.182;8.624;2022-11-02T21:44:23;7.80;99.90
51011;DHT22;37038;50.182;8.624;2022-11-02T21:47:41;7.80;99.90
51011;DHT22;37038;50.182;8.624;2022-11-02T21:50:35;7.70;99.90
51011;DHT22;37038;50.182;8.624;2022-11-02T21:53:30;7.60;99.90
51011;DHT22;37038;50.182;8.624;2022-11-02T21:56:25;7.70;99.90
51011;DHT22;37038;50.182;8.624;2022-11-02T21:59:17;7.80;99.90
51011;DHT22;37038;50.182;8.624;2022-11-02T22:02:05;7.70;99.90
51011;DHT22;37038;50.182;8.624;2022-11-02T22:04:56;7.80;99.90
51011;DHT22;37038;50.182;8.624;2022-11-02T22:07:52;7.80;99.90
51011;DHT22;37038;50.182;8.624;2022-11-02T22:11:09;7.90;99.90
51011;DHT22;37038;50.182;8.624;2022-11-02T22:14:00;8.00;99.90
51011;DHT22;37038;50.182;8.624;2022-11-02T22:16:55;8.00;99.90
51011;DHT22;37038;50.182;8.624;2022-11-02T22:19:45;8.10;99.90
51011;DHT22;37038;50.182;8.624;2022-11-02T22:22:35;8.20;99.90
51011;DHT22;37038;50.182;8.624;2022-11-02T22:25:34;8.00;99.90
51011;DHT22;37038;50.182;8.624;2022-11-02T22:28:22;8.00;99.90
51011;DHT22;37038;50.182;8.624;2022-11-02T22:31:25;8.10;99.90
51011;DHT22;37038;50.182;8.624;2022-11-02T22:34:17;8.20;99.90
51011;DHT22;37038;50.182;8.624;2022-11-02T22:37:09;8.20;99.90
51011;DHT22;37038;50.182;8.624;2022-11-02T22:40:16;8.20;99.90
51011;DHT22;37038;50.182;8.624;2022-11-02T22:43:04;8.40;99.90
51011;DHT22;37038;50.182;8.624;2022-11-02T22:46:05;8.40;99.90
51011;DHT22;37038;50.182;8.624;2022-11-02T22:49:02;8.30;99.90
51011;DHT22;37038;50.182;8.624;2022-11-02T22:51:51;8.20;99.90
51011;DHT22;37038;50.182;8.624;2022-11-02T22:54:42;8.40;99.90
51011;DHT22;37038;50.182;8.624;2022-11-02T22:57:36;8.30;99.90
51011;DHT22;37038;50.182;8.624;2022-11-02T23:00:30;8.30;99.90
51011;DHT22;37038;50.182;8.624;2022-11-02T23:03:21;8.10;99.90
51011;DHT22;37038;50.182;8.624;2022-11-02T23:06:11;8.30;99.90
51011;DHT22;37038;50.182;8.624;2022-11-02T23:09:10;8.20;99.90
51011;DHT22;37038;50.182;8.624;2022-11-02T23:11:58;8.10;99.90
51011;DHT22;37038;50.182;8.624;2022-11-02T23:14:56;8.10;99.90
51011;DHT22;37038;50.182;8.624;2022-11-02T23:17:49;7.80;99.90
51011;DHT22;37038;50.182;8.624;2022-11-02T23:20:38;7.90;99.90
51011;DHT22;37038;50.182;8.624;2022-11-02T23:23:27;7.80;99.90
51011;DHT22;37038;50.182;8.624;2022-11-02T23:26:33;7.60;99.90
51011;DHT22;37038;50.182;8.624;2022-11-02T23:29:29;7.70;99.90
51011;DHT22;37038;50.182;8.624;2022-11-02T23:32:43;7.90;99.90
51011;DHT22;37038;50.182;8.624;2022-11-02T23:35:34;7.90;99.90
51011;DHT22;37038;50.182;8.624;2022-11-02T23:38:49;7.90;99.90
51011;DHT22;37038;50.182;8.624;2022-11-02T23:41:56;7.90;99.90
51011;DHT22;37038;50.182;8.624;2022-11-02T23:44:44;7.90;99.90
51011;DHT22;37038;50.182;8.624;2022-11-02T23:47:38;8.00;99.90
51011;DHT22;37038;50.182;8.624;2022-11-02T23:50:44;8.10;99.90
51011;DHT22;37038;50.182;8.624;2022-11-02T23:54:02;7.90;99.90
51011;DHT22;37038;50.182;8.624;2022-11-02T23:57:09;8.10;99.90
51011;DHT22;37038;50.182;8.624;2022-11-02T23:59:58;8.20;99.90
